Time;durP1;ratioP1;P1;durP2;ratioP2;P2;SDS_P1;SDS_P2;PMS_P1;PMS_P2;Temp;Humidity;BMP_temperature;BMP_pressure;BME280_temperature;BME280_humidity;BME280_pressure;Samples;Min_cycle;Max_cycle;Signal;HPM_P1;HPM_P2
2020/12/23 00:01:19;;;;;;;1.23;1.00;;;13.50;85.60;;;13.04;67.86;94989.91;5074646;28;20186;-82
2020/12/23 00:03:46;;;;;;;2.50;1.00;;;13.50;85.40;;;12.97;67.81;94995.16;5045412;28;20198;-81
2020/12/23 00:06:13;;;;;;;1.00;1.00;;;13.50;85.30;;;12.89;68.13;94985.66;5070696;28;20228;-82
2020/12/23 00:08:40;;;;;;;3.10;1.00;;;13.50;85.30;;;12.81;68.48;94988.50;5053851;28;20202;-82
2020/12/23 00:11:06;;;;;;;1.00;1.00;;;13.40;85.20;;;12.79;68.31;94995.78;5070776;28;20200;-81
2020/12/23 00:13:36;;;;;;;1.10;1.00;;;13.40;85.50;;;12.77;68.49;94995.19;5079003;28;20656;-81
2020/12/23 00:16:06;;;;;;;1.00;1.00;;;13.40;85.60;;;12.75;68.61;94992.75;5073855;28;20228;-81
2020/12/23 00:18:34;;;;;;;1.17;0.93;;;13.30;85.70;;;12.77;68.71;94988.09;5057723;28;20674;-81
2020/12/23 00:21:00;;;;;;;0.98;0.98;;;13.30;85.90;;;12.79;68.70;94996.63;5077167;28;20217;-81
2020/12/23 00:23:27;;;;;;;1.23;1.20;;;13.30;86.00;;;12.79;68.67;94995.78;5078023;28;20210;-81
2020/12/23 00:25:54;;;;;;;1.08;1.08;;;13.30;86.00;;;12.82;68.69;94993.56;5059064;28;20226;-81
2020/12/23 00:28:20;;;;;;;1.00;1.00;;;13.30;86.10;;;12.86;68.75;94987.91;5077854;28;20214;-81
2020/12/23 00:30:47;;;;;;;1.38;1.27;;;13.30;86.10;;;12.88;68.63;94989.31;5077899;28;20222;-81
2020/12/23 00:33:26;;;;;;;1.30;1.20;;;13.30;86.20;;;12.86;68.95;94990.53;5096411;28;20557;-81
2020/12/23 00:35:53;;;;;;;3.47;1.08;;;13.30;86.20;;;12.92;68.52;94979.97;5073588;28;20293;-81
2020/12/23 00:38:20;;;;;;;1.05;1.05;;;13.40;86.30;;;12.93;68.51;94992.13;5061706;28;20199;-82
2020/12/23 00:40:47;;;;;;;1.38;1.27;;;13.30;86.10;;;12.98;68.63;94978.38;5074646;28;20241;-81
2020/12/23 00:43:14;;;;;;;1.00;1.00;;;13.40;86.20;;;12.99;68.45;94980.00;5077352;28;20678;-81
2020/12/23 00:45:41;;;;;;;0.98;0.98;;;13.40;86.10;;;13.00;68.36;94978.97;5077363;28;20228;-81
2020/12/23 00:48:08;;;;;;;1.20;1.10;;;13.40;86.10;;;13.02;68.40;94979.56;5077303;28;20194;-81
2020/12/23 00:50:34;;;;;;;1.85;1.35;;;13.40;86.00;;;12.98;68.40;94987.06;5077567;28;20751;-81
2020/12/23 00:53:02;;;;;;;1.38;1.27;;;13.40;85.90;;;13.01;68.55;94988.50;5094076;28;20202;-82
2020/12/23 00:55:29;;;;;;;1.30;1.20;;;13.40;85.90;;;13.01;68.32;94972.69;5077119;28;20403;-81
2020/12/23 00:57:55;;;;;;;1.20;1.10;;;13.40;85.80;;;13.02;68.28;94979.56;5077579;28;20194;-81
2020/12/23 01:00:22;;;;;;;1.10;1.10;;;13.50;85.90;;;13.00;68.27;94984.25;5094229;28;20220;-81
2020/12/23 01:02:50;;;;;;;1.17;1.10;;;13.50;85.80;;;13.00;68.37;94981.59;5094011;28;20198;-81
2020/12/23 01:05:17;;;;;;;1.23;1.13;;;13.50;86.60;;;12.97;68.20;94984.63;5076369;28;20684;-81
2020/12/23 01:07:44;;;;;;;1.70;1.20;;;13.40;85.70;;;13.00;68.10;94989.50;5075937;28;20664;-81
2020/12/23 01:10:11;;;;;;;1.40;1.30;;;13.50;85.70;;;12.97;67.88;94980.19;5073462;28;20222;-81
2020/12/23 01:12:38;;;;;;;1.10;1.10;;;13.50;85.70;;;12.96;68.16;94983.00;5052781;28;20255;-81
2020/12/23 01:15:05;;;;;;;1.48;1.38;;;13.50;85.60;;;12.98;67.96;94992.31;5093173;28;20222;-82
2020/12/23 01:17:32;;;;;;;1.85;1.20;;;13.50;85.60;;;12.99;67.89;94998.41;5077542;28;20597;-81
2020/12/23 01:19:59;;;;;;;1.30;1.20;;;13.50;85.60;;;12.97;68.16;94988.09;5077499;28;20308;-81
2020/12/23 01:22:26;;;;;;;1.00;1.00;;;13.60;85.50;;;12.97;67.97;95011.78;5076567;28;20573;-80
2020/12/23 01:24:53;;;;;;;2.53;1.40;;;13.40;85.20;;;12.93;67.78;94996.59;5076625;28;20283;-81
2020/12/23 01:27:20;;;;;;;1.50;1.40;;;13.40;85.20;;;12.90;68.22;94989.09;5076784;28;20218;-81
2020/12/23 01:29:47;;;;;;;1.40;1.30;;;13.50;85.30;;;12.89;67.95;94995.38;5056898;28;20237;-81
2020/12/23 01:32:14;;;;;;;1.40;1.30;;;13.40;85.30;;;12.86;67.86;94991.31;5070922;28;20269;-82
2020/12/23 01:34:41;;;;;;;1.52;1.40;;;13.40;85.20;;;12.83;68.26;94989.13;5093955;28;20210;-81
2020/12/23 01:37:07;;;;;;;1.50;1.40;;;13.40;85.30;;;12.88;68.26;94985.88;5059958;28;20248;-81
2020/12/23 01:39:35;;;;;;;1.45;1.33;;;13.40;85.40;;;12.89;68.22;94982.22;5076539;28;20230;-81
2020/12/23 01:42:02;;;;;;;1.30;1.20;;;13.40;85.60;;;12.90;68.26;94981.19;5059630;28;20197;-81
2020/12/23 01:44:28;;;;;;;1.23;1.10;;;13.40;85.60;;;12.90;68.22;94978.56;5093232;28;20316;-81
2020/12/23 01:46:58;;;;;;;1.30;1.20;;;13.40;85.60;;;12.92;68.08;94977.34;5076159;28;20337;-81
2020/12/23 01:49:24;;;;;;;1.45;1.35;;;13.50;85.70;;;12.94;68.30;94983.22;5093592;28;20304;-81
2020/12/23 01:51:51;;;;;;;1.30;1.20;;;13.40;85.60;;;12.94;68.04;94961.38;5093286;28;20281;-82
2020/12/23 01:54:18;;;;;;;1.27;1.17;;;13.40;85.70;;;12.98;68.06;94967.84;5093295;28;20563;-81
2020/12/23 01:56:45;;;;;;;1.30;1.20;;;13.40;85.60;;;12.99;68.08;94964.19;5109638;28;20597;-82
2020/12/23 01:59:12;;;;;;;1.20;1.20;;;13.40;85.60;;;12.98;67.89;94970.47;5076215;28;20753;-81
2020/12/23 02:01:47;;;;;;;1.30;1.20;;;13.50;85.70;;;12.91;67.90;94956.50;5093145;28;20276;-82
2020/12/23 02:04:21;;;;;;;1.40;1.30;;;13.40;85.50;;;12.91;67.89;94952.03;5077265;28;20666;-81
2020/12/23 02:06:48;;;;;;;1.45;1.35;;;13.40;85.40;;;12.90;67.84;94960.97;5076235;28;20675;-80
2020/12/23 02:09:16;;;;;;;1.23;1.13;;;13.40;85.20;;;12.87;67.82;94963.19;5076091;28;20229;-81
2020/12/23 02:11:46;;;;;;;1.30;1.20;;;13.50;85.30;;;12.79;67.93;94958.94;5059582;28;20680;-82
2020/12/23 02:14:13;;;;;;;1.20;1.20;;;13.30;85.10;;;12.73;67.93;94954.50;5059269;28;20214;-81
2020/12/23 02:16:41;;;;;;;1.67;1.20;;;13.30;85.00;;;12.66;67.90;94959.78;5075375;28;20561;-81
2020/12/23 02:19:08;;;;;;;1.40;1.30;;;13.30;85.10;;;12.61;68.15;94957.75;5076247;28;20292;-81
2020/12/23 02:21:36;;;;;;;1.40;1.30;;;13.20;85.10;;;12.60;68.23;94950.06;5075814;28;20281;-81
2020/12/23 02:24:03;;;;;;;1.40;1.30;;;13.10;85.10;;;12.57;68.32;94956.53;5072177;28;20215;-81
2020/12/23 02:26:30;;;;;;;1.38;1.30;;;13.20;85.30;;;12.56;68.39;94952.28;5055685;28;20245;-81
2020/12/23 02:28:57;;;;;;;1.35;1.25;;;13.20;85.40;;;12.55;68.62;94941.94;5085268;28;20225;-80
2020/12/23 02:31:23;;;;;;;1.10;1.10;;;13.10;85.40;;;12.54;68.73;94941.16;5092531;28;20648;-81
2020/12/23 02:33:50;;;;;;;1.17;1.10;;;13.10;85.50;;;12.56;68.53;94940.94;5075703;28;20191;-81
2020/12/23 02:36:17;;;;;;;1.45;1.35;;;13.10;85.50;;;12.56;68.41;94940.94;5071516;28;20194;-82
2020/12/23 02:38:44;;;;;;;1.13;1.10;;;13.00;85.30;;;12.53;68.17;94936.09;5055888;28;20637;-81
2020/12/23 02:41:11;;;;;;;1.05;1.05;;;13.10;85.30;;;12.47;68.26;94930.66;5072264;28;20218;-81
2020/12/23 02:43:39;;;;;;;1.00;1.00;;;13.00;85.40;;;12.49;68.29;94940.97;5079871;28;20194;-81
2020/12/23 02:46:06;;;;;;;1.13;1.10;;;13.00;85.60;;;12.49;68.60;94941.75;5075517;28;20240;-81
2020/12/23 02:48:33;;;;;;;1.48;1.23;;;13.00;85.70;;;12.52;68.61;94937.09;5075510;28;20284;-81
2020/12/23 02:51:00;;;;;;;1.15;1.00;;;12.90;85.80;;;12.57;68.87;94937.31;5075418;28;20247;-80
2020/12/23 02:53:27;;;;;;;0.80;0.80;;;13.00;85.90;;;12.56;68.61;94927.78;5058368;28;20233;-81
2020/12/23 02:55:53;;;;;;;0.90;0.90;;;13.00;86.10;;;12.63;68.73;94936.47;5074835;28;20257;-81
2020/12/23 02:58:21;;;;;;;1.02;1.02;;;13.00;86.10;;;12.65;68.59;94934.47;5071793;28;20201;-82
2020/12/23 03:00:48;;;;;;;0.95;0.95;;;13.00;86.10;;;12.66;68.71;94925.56;5071556;28;20234;-81
2020/12/23 03:03:16;;;;;;;1.00;1.00;;;13.20;86.20;;;12.67;68.74;94921.94;5067221;28;20190;-81
2020/12/23 03:05:42;;;;;;;0.90;0.90;;;13.10;86.00;;;12.65;68.34;94913.41;5058656;28;20264;-81
2020/12/23 03:08:09;;;;;;;1.02;1.02;;;13.10;85.80;;;12.62;68.07;94922.53;5091754;28;20240;-81
2020/12/23 03:10:36;;;;;;;1.00;1.00;;;13.10;85.50;;;12.58;67.97;94921.31;5063729;28;20218;-80
2020/12/23 03:13:03;;;;;;;0.80;0.80;;;13.10;85.40;;;12.49;68.17;94918.06;5055333;28;20190;-80
2020/12/23 03:15:29;;;;;;;1.05;1.05;;;13.00;85.20;;;12.44;68.20;94911.81;5070887;28;20229;-81
2020/12/23 03:17:56;;;;;;;0.82;0.82;;;13.00;85.20;;;12.36;68.50;94893.63;5087801;28;20221;-81
2020/12/23 03:20:23;;;;;;;0.90;0.90;;;13.00;85.40;;;12.34;68.44;94893.81;5068504;28;20304;-80
2020/12/23 03:22:50;;;;;;;0.80;0.80;;;13.00;86.10;;;12.29;67.95;94899.69;5051515;28;20209;-80
2020/12/23 03:25:17;;;;;;;1.05;1.00;;;13.00;85.20;;;12.23;68.29;94894.41;5051913;28;20214;-80
2020/12/23 03:27:45;;;;;;;0.90;0.90;;;12.90;85.10;;;12.20;68.24;94900.88;5084940;28;20209;-80
2020/12/23 03:30:11;;;;;;;0.90;0.90;;;12.80;85.10;;;12.14;68.52;94891.97;5047236;28;20275;-80
2020/12/23 03:32:38;;;;;;;1.00;0.90;;;12.70;85.10;;;12.10;68.49;94898.66;5070804;28;20210;-80
2020/12/23 03:35:18;;;;;;;0.73;0.73;;;12.70;85.20;;;12.08;68.47;94894.63;5075921;28;20222;-80
2020/12/23 03:37:44;;;;;;;0.88;0.88;;;12.70;85.30;;;12.07;68.37;94899.06;5074551;28;20281;-79
2020/12/23 03:40:11;;;;;;;1.15;1.13;;;12.60;85.20;;;12.03;68.47;94894.41;5053371;28;20233;-80
2020/12/23 03:42:38;;;;;;;1.00;1.00;;;12.70;85.30;;;12.01;68.23;94898.06;5055069;28;20209;-80
2020/12/23 03:45:05;;;;;;;0.90;0.90;;;12.60;85.40;;;11.99;68.69;94896.63;5082018;28;20242;-80
2020/12/23 03:47:32;;;;;;;1.00;1.00;;;12.60;85.40;;;11.97;68.57;94901.28;5073547;28;20304;-81
2020/12/23 03:49:59;;;;;;;0.90;0.90;;;12.50;86.20;;;11.93;68.94;94905.28;5081222;28;20252;-80
2020/12/23 03:52:25;;;;;;;1.10;1.10;;;12.60;85.60;;;11.91;69.17;94897.59;5084611;28;20190;-81
2020/12/23 03:54:52;;;;;;;0.90;0.90;;;12.50;85.90;;;12.00;69.24;94903.53;5072939;28;20221;-79
2020/12/23 03:57:18;;;;;;;1.10;1.10;;;12.60;86.10;;;12.04;69.22;94898.66;5088744;28;20194;-81
2020/12/23 03:59:45;;;;;;;0.88;0.88;;;12.60;86.20;;;12.08;69.07;94892.00;5055110;28;20226;-78
2020/12/23 04:02:12;;;;;;;1.10;1.10;;;12.60;86.30;;;12.14;69.40;94899.88;5070058;28;20198;-80
2020/12/23 04:04:39;;;;;;;0.98;0.98;;;12.60;86.50;;;12.21;69.20;94901.72;5078303;28;20222;-80
2020/12/23 04:07:06;;;;;;;1.23;1.13;;;12.60;86.50;;;12.23;69.29;94891.78;5066358;28;20213;-80
2020/12/23 04:09:33;;;;;;;1.25;1.10;;;12.70;86.40;;;12.27;69.11;94901.69;5069891;28;20271;-80
2020/12/23 04:11:59;;;;;;;1.10;1.10;;;12.70;86.50;;;12.35;69.10;94899.88;5083128;28;20186;-80
2020/12/23 04:14:26;;;;;;;1.20;1.20;;;12.80;86.70;;;12.36;69.30;94894.41;5048477;28;20219;-80
2020/12/23 04:16:53;;;;;;;1.48;1.38;;;12.80;86.80;;;12.48;69.30;94894.63;5083380;28;20277;-81
2020/12/23 04:19:20;;;;;;;1.20;1.20;;;12.80;86.70;;;12.52;68.95;94892.38;5065859;28;20214;-81
2020/12/23 04:21:46;;;;;;;1.13;1.10;;;12.90;86.60;;;12.54;68.66;94880.63;5066354;28;20281;-81
2020/12/23 04:24:13;;;;;;;1.40;1.30;;;12.90;86.30;;;12.55;68.69;94890.16;5065542;28;20312;-80
2020/12/23 04:26:40;;;;;;;1.20;1.20;;;12.90;86.10;;;12.45;68.58;94869.53;5068506;28;20625;-80
2020/12/23 04:29:07;;;;;;;1.30;1.20;;;13.00;86.00;;;12.47;68.40;94866.69;5081500;28;20214;-80
2020/12/23 04:31:34;;;;;;;1.48;1.38;;;13.00;85.90;;;12.42;68.35;94871.75;5055251;28;20683;-80
2020/12/23 04:34:01;;;;;;;1.30;1.20;;;13.00;85.70;;;12.41;68.59;94865.66;5065651;28;20249;-81
2020/12/23 04:36:28;;;;;;;1.20;1.20;;;13.00;85.70;;;12.38;68.42;94860.84;5052993;28;20269;-81
2020/12/23 04:38:55;;;;;;;1.98;1.20;;;12.90;85.60;;;12.32;68.77;94859.81;5069885;28;20605;-80
2020/12/23 04:41:21;;;;;;;1.20;1.10;;;12.90;85.40;;;12.29;68.38;94857.59;5063870;28;20226;-80
2020/12/23 04:43:50;;;;;;;1.10;1.10;;;12.90;85.20;;;12.19;68.26;94862.44;5083810;28;20660;-80
2020/12/23 04:46:23;;;;;;;1.10;1.10;;;12.80;85.00;;;12.13;68.10;94876.41;5047750;28;20242;-80
2020/12/23 04:48:58;;;;;;;1.30;1.23;;;12.90;85.20;;;12.06;68.80;94863.28;5078709;28;20263;-81
2020/12/23 04:51:33;;;;;;;1.50;1.40;;;12.80;85.40;;;12.07;68.78;94877.22;5068881;28;20205;-81
2020/12/23 04:54:04;;;;;;;1.10;1.10;;;12.70;85.40;;;12.05;68.96;94872.19;5072154;28;21857;-81
2020/12/23 04:56:32;;;;;;;1.10;1.10;;;12.70;85.40;;;12.02;68.74;94864.69;5072151;28;20202;-82
2020/12/23 04:59:02;;;;;;;1.67;1.30;;;12.70;85.50;;;12.04;68.76;94873.19;5054449;28;20198;-81
2020/12/23 05:01:29;;;;;;;9.98;5.78;;;12.60;85.40;;;12.02;68.64;94885.72;5055188;28;20247;-81
2020/12/23 05:03:56;;;;;;;8.48;6.68;;;12.60;85.30;;;11.97;68.75;94882.88;5072533;28;20209;-81
2020/12/23 05:06:25;;;;;;;3.22;2.92;;;12.60;85.40;;;11.94;68.84;94888.53;5053961;28;20693;-81
2020/12/23 05:08:53;;;;;;;1.70;1.60;;;12.50;85.40;;;11.93;68.92;94892.16;5090806;28;20211;-80
2020/12/23 05:11:20;;;;;;;1.70;1.60;;;12.60;85.60;;;11.93;68.58;94900.03;5090711;28;20199;-81
2020/12/23 05:13:47;;;;;;;3.58;3.28;;;12.50;85.60;;;11.92;68.94;94893.97;5073745;28;20264;-81
2020/12/23 05:16:24;;;;;;;2.20;1.90;;;12.50;85.70;;;11.94;69.03;94894.56;5091975;28;20191;-81
2020/12/23 05:18:57;;;;;;;1.70;1.60;;;12.50;85.70;;;11.93;69.04;94898.22;5077211;28;20247;-81
2020/12/23 05:21:25;;;;;;;11.73;5.75;;;12.50;85.80;;;11.98;69.11;94895.00;5077104;28;20192;-80
2020/12/23 05:23:54;;;;;;;12.82;7.60;;;12.60;86.00;;;12.00;68.69;94877.22;5066029;28;20187;-81
2020/12/23 05:26:22;;;;;;;8.82;5.32;;;12.60;85.90;;;11.98;68.73;94868.72;5075323;28;20225;-82
2020/12/23 05:28:51;;;;;;;2.88;2.58;;;12.50;85.60;;;11.95;68.62;94874.34;5073953;28;20210;-81
2020/12/23 05:31:20;;;;;;;4.65;3.38;;;12.60;85.70;;;11.97;68.73;94875.00;5073473;28;20195;-81
2020/12/23 05:33:49;;;;;;;2.88;2.50;;;12.50;85.60;;;11.95;68.79;94869.91;5073551;28;20195;-81
2020/12/23 05:36:36;;;;;;;2.08;1.90;;;12.50;85.40;;;11.89;68.67;94875.16;5059822;28;20267;-81
2020/12/23 05:39:06;;;;;;;3.45;3.03;;;12.50;85.40;;;11.90;69.01;94892.53;5073235;28;20309;-82
2020/12/23 05:41:36;;;;;;;2.72;2.50;;;12.50;85.50;;;11.90;68.98;94888.13;5057881;28;20653;-81
2020/12/23 05:44:18;;;;;;;3.45;2.47;;;12.50;85.60;;;11.91;69.12;94889.69;5060110;28;20221;-80
2020/12/23 05:46:49;;;;;;;8.25;6.07;;;12.40;85.70;;;11.97;69.58;94888.97;5076559;28;20672;-81
2020/12/23 05:49:18;;;;;;;7.05;5.65;;;12.50;86.00;;;12.03;69.24;94882.06;5056445;28;20218;-81
2020/12/23 05:51:45;;;;;;;4.05;3.25;;;12.50;86.20;;;12.10;69.03;94882.88;5039922;28;20202;-81
2020/12/23 05:54:13;;;;;;;3.33;2.75;;;12.60;86.40;;;12.16;69.06;94876.81;5073113;28;20364;-81
2020/12/23 05:56:42;;;;;;;4.00;3.15;;;12.50;86.30;;;12.21;69.07;94889.38;5056637;28;20214;-82
2020/12/23 05:59:09;;;;;;;4.88;4.00;;;12.60;86.30;;;12.25;69.09;94895.03;5071936;28;20582;-80
2020/12/23 06:01:38;;;;;;;3.90;3.38;;;12.60;86.30;;;12.30;69.15;94890.78;5060142;28;20194;-81
2020/12/23 06:04:13;;;;;;;3.13;2.83;;;12.60;86.30;;;12.34;68.97;94885.94;5059383;28;20214;-81
2020/12/23 06:07:05;;;;;;;5.72;4.30;;;12.70;86.30;;;12.41;68.80;94885.91;5093018;28;20213;-81
2020/12/23 06:09:49;;;;;;;11.35;8.00;;;12.80;86.30;;;12.48;68.77;94873.56;5076341;28;20240;-81
2020/12/23 06:12:21;;;;;;;3.55;2.85;;;12.80;86.20;;;12.52;68.62;94880.03;5092953;28;20182;-81
2020/12/23 06:15:00;;;;;;;3.58;2.80;;;12.90;86.20;;;12.54;68.45;94872.75;5092706;28;20296;-81
2020/12/23 06:17:30;;;;;;;3.42;2.20;;;12.90;86.70;;;12.54;68.24;94875.38;5075925;28;20683;-81
2020/12/23 06:20:00;;;;;;;2.53;2.25;;;13.00;85.80;;;12.55;68.35;94869.09;5076142;28;20680;-81
2020/12/23 06:22:28;;;;;;;3.78;3.30;;;12.90;85.60;;;12.52;68.38;94858.97;5076526;28;20198;-81
2020/12/23 06:25:00;;;;;;;3.47;2.75;;;12.90;85.60;;;12.55;68.33;94869.09;5075926;28;20214;-81
2020/12/23 06:27:32;;;;;;;5.45;3.05;;;13.00;85.60;;;12.55;68.21;94863.03;5093413;28;20632;-81
2020/12/23 06:30:00;;;;;;;5.32;3.40;;;13.00;85.50;;;12.56;68.33;94862.00;5092503;28;20632;-81
2020/12/23 06:32:28;;;;;;;6.55;3.72;;;13.00;86.40;;;12.53;68.28;94854.53;5059123;28;20198;-81
2020/12/23 06:35:01;;;;;;;10.35;5.63;;;13.00;85.50;;;12.52;68.04;94858.97;5059089;28;20232;-81
2020/12/23 06:37:33;;;;;;;10.57;6.20;;;13.10;85.50;;;12.52;68.11;94860.81;5092546;28;20232;-81
2020/12/23 06:40:11;;;;;;;4.50;3.22;;;13.00;85.40;;;12.51;68.46;94865.25;5092458;28;20216;-81
2020/12/23 06:42:47;;;;;;;3.60;2.90;;;13.00;85.40;;;12.51;68.32;94861.81;5075890;28;20276;-81
2020/12/23 06:45:14;;;;;;;2.95;2.42;;;13.00;85.40;;;12.50;68.32;94863.66;5058946;28;20225;-81
2020/12/23 06:47:42;;;;;;;2.45;2.10;;;13.10;85.70;;;12.55;68.22;94865.66;5075682;28;20471;-81
2020/12/23 06:50:29;;;;;;;5.20;3.85;;;13.00;85.60;;;12.55;68.21;94863.84;5075422;28;20707;-81
2020/12/23 06:52:57;;;;;;;3.33;2.20;;;13.00;85.50;;;12.58;68.24;94870.53;5075649;28;20200;-81
2020/12/23 06:55:44;;;;;;;5.95;3.92;;;13.00;85.60;;;12.58;68.21;94879.22;5075268;28;20226;-81
2020/12/23 06:58:42;;;;;;;3.60;2.80;;;13.00;85.50;;;12.58;68.38;94878.41;5075510;28;20674;-80
2020/12/23 07:01:19;;;;;;;5.65;3.17;;;13.00;85.40;;;12.57;68.38;94867.09;5074977;28;20239;-81
2020/12/23 07:03:47;;;;;;;4.32;2.70;;;13.00;85.40;;;12.56;67.83;94860.19;5058850;28;20199;-81
2020/12/23 07:06:33;;;;;;;4.05;2.85;;;13.00;85.40;;;12.60;68.20;94863.25;5092081;28;20304;-81
2020/12/23 07:09:03;;;;;;;10.02;5.05;;;13.00;85.30;;;12.60;68.09;94857.97;5058602;28;20210;-81
2020/12/23 07:11:34;;;;;;;6.80;4.15;;;13.00;85.30;;;12.61;67.98;94859.59;5058297;28;20292;-81
2020/12/23 07:14:01;;;;;;;9.73;5.22;;;13.10;85.50;;;12.60;68.20;94855.34;5075049;28;20676;-82
2020/12/23 07:16:39;;;;;;;11.02;4.68;;;13.00;85.40;;;12.62;68.27;94846.22;5091092;28;20281;-80
2020/12/23 07:19:06;;;;;;;7.03;2.85;;;13.00;85.50;;;12.65;68.12;94850.25;5091266;28;20312;-80
2020/12/23 07:21:34;;;;;;;4.30;2.65;;;13.10;85.50;;;12.68;68.17;94855.09;5074326;28;20190;-81
2020/12/23 07:24:02;;;;;;;3.88;2.50;;;13.10;85.50;;;12.69;68.28;94858.56;5058557;28;20542;-80
2020/12/23 07:26:29;;;;;;;5.47;3.63;;;13.10;85.60;;;12.72;68.00;94858.97;5057619;28;20630;-81
2020/12/23 07:28:57;;;;;;;5.32;3.78;;;13.10;85.50;;;12.75;68.02;94847.19;5074094;28;20252;-81
2020/12/23 07:31:25;;;;;;;3.72;2.78;;;13.20;85.60;;;12.78;67.78;94852.03;5074147;28;20190;-81
2020/12/23 07:33:52;;;;;;;1.80;1.70;;;13.20;85.50;;;12.78;67.67;94852.88;5108392;28;20202;-80
2020/12/23 07:36:19;;;;;;;1.52;1.42;;;13.20;85.50;;;12.81;68.17;94849.81;5074302;28;20194;-80
2020/12/23 07:38:52;;;;;;;1.58;1.48;;;13.20;85.50;;;12.85;68.00;94849.41;5058047;28;20547;-81
2020/12/23 07:41:19;;;;;;;1.52;1.38;;;13.20;85.30;;;12.85;68.01;94847.56;5091188;28;20243;-81
2020/12/23 07:43:46;;;;;;;3.40;2.10;;;13.20;85.40;;;12.91;68.28;94832.78;5073826;28;20202;-81
2020/12/23 07:46:13;;;;;;;1.98;1.70;;;13.30;85.60;;;12.93;68.07;94831.53;5074356;28;20268;-82
2020/12/23 07:48:40;;;;;;;1.58;1.48;;;13.30;85.60;;;12.96;68.04;94828.50;5074782;28;20206;-81
2020/12/23 07:51:09;;;;;;;3.50;2.92;;;13.30;85.60;;;13.00;67.99;94843.88;5073994;28;20207;-81
2020/12/23 07:53:35;;;;;;;2.78;2.38;;;13.30;85.50;;;13.03;68.07;94846.91;5056847;28;20206;-81
2020/12/23 07:56:05;;;;;;;2.47;2.20;;;13.40;85.60;;;13.07;68.09;94855.19;5074115;28;20299;-80
2020/12/23 07:58:39;;;;;;;2.00;1.80;;;13.40;85.40;;;13.11;67.99;94862.47;5058141;28;20667;-81
2020/12/23 08:01:09;;;;;;;2.20;2.00;;;13.40;85.50;;;13.12;67.48;94864.09;5074231;28;20224;-81
2020/12/23 08:03:36;;;;;;;3.45;2.75;;;13.40;85.40;;;13.15;67.69;94865.50;5073985;28;20193;-81
2020/12/23 08:06:11;;;;;;;3.22;2.92;;;13.50;85.60;;;13.17;67.92;94845.03;5058119;28;20263;-81
2020/12/23 08:08:40;;;;;;;5.88;3.75;;;13.50;85.40;;;13.26;67.71;94854.28;5091363;28;20186;-81
2020/12/23 08:11:13;;;;;;;2.70;2.50;;;13.50;85.60;;;13.29;67.86;94856.53;5073842;28;20186;-81
2020/12/23 08:13:42;;;;;;;4.13;2.85;;;13.60;85.40;;;13.35;67.61;94856.69;5074461;28;20194;-81
2020/12/23 08:16:16;;;;;;;6.43;5.03;;;13.60;85.40;;;13.36;67.69;94859.13;5091106;28;20442;-81
2020/12/23 08:18:44;;;;;;;6.03;3.90;;;13.70;85.50;;;13.42;67.55;94857.50;5091158;28;20639;-80
2020/12/23 08:21:17;;;;;;;4.15;3.20;;;13.70;85.50;;;13.47;67.61;94870.84;5087107;28;20198;-81
2020/12/23 08:23:48;;;;;;;5.57;4.07;;;13.70;85.50;;;13.54;67.39;94866.34;5038333;28;20664;-81
2020/12/23 08:26:15;;;;;;;4.38;3.00;;;13.70;85.60;;;13.65;67.77;94869.34;5070697;28;20210;-81
2020/12/23 08:28:46;;;;;;;3.58;2.90;;;13.80;85.90;;;13.73;67.64;94871.72;5065940;28;20202;-80
2020/12/23 08:31:30;;;;;;;2.65;2.28;;;13.90;86.00;;;13.85;67.38;94874.47;5073039;28;20225;-81
2020/12/23 08:34:00;;;;;;;2.75;2.00;;;13.90;85.60;;;13.93;67.34;94868.97;5074449;28;20193;-78
2020/12/23 08:36:31;;;;;;;4.32;2.92;;;14.10;85.90;;;14.03;66.99;94868.47;5056708;28;20198;-80
2020/12/23 08:38:58;;;;;;;2.17;1.98;;;14.10;85.60;;;14.11;66.67;94862.94;5090925;28;20236;-81
2020/12/23 08:41:26;;;;;;;1.65;1.55;;;14.20;85.70;;;14.20;67.13;94868.75;5072030;28;20201;-81
2020/12/23 08:43:54;;;;;;;1.90;1.70;;;14.30;85.60;;;14.27;66.85;94871.34;5074339;28;20203;-81
2020/12/23 08:46:26;;;;;;;1.23;1.20;;;14.40;85.60;;;14.35;66.34;94871.84;5071420;28;20275;-81
2020/12/23 08:48:55;;;;;;;1.38;1.27;;;14.40;85.10;;;14.42;66.62;94869.19;5060361;28;20204;-81
2020/12/23 08:51:25;;;;;;;1.50;1.40;;;14.50;85.30;;;14.51;66.40;94878.44;5072831;28;20551;-81
2020/12/23 08:53:52;;;;;;;1.48;1.38;;;14.60;85.20;;;14.53;66.15;94871.09;5063980;28;20205;-81
2020/12/23 08:56:31;;;;;;;1.40;1.30;;;14.70;85.00;;;14.61;65.78;94863.94;5078819;28;20215;-81
2020/12/23 08:59:05;;;;;;;1.27;1.17;;;14.70;84.60;;;14.64;65.40;94863.50;5077190;28;20197;-80
2020/12/23 09:01:35;;;;;;;1.10;1.10;;;14.80;84.30;;;14.70;65.76;94873.22;5077359;28;20196;-81
2020/12/23 09:04:05;;;;;;;1.27;1.15;;;14.80;84.40;;;14.75;65.40;94869.94;5094376;28;20230;-81
2020/12/23 09:06:34;;;;;;;1.40;1.30;;;14.90;84.30;;;14.76;65.21;94867.06;5078152;28;20209;-81
2020/12/23 09:09:17;;;;;;;1.30;1.20;;;14.90;84.10;;;14.80;64.86;94868.22;5094616;28;20234;-83
2020/12/23 09:11:48;;;;;;;1.02;1.00;;;15.00;83.50;;;14.82;64.74;94868.81;5060879;28;20194;-81
2020/12/23 09:14:37;;;;;;;1.38;1.20;;;15.00;83.80;;;14.87;64.75;94853.13;5077417;28;20283;-81
2020/12/23 09:17:13;;;;;;;1.30;1.00;;;15.10;83.90;;;14.92;64.51;94855.13;5060843;28;20197;-81
2020/12/23 09:19:41;;;;;;;1.55;1.45;;;15.10;83.40;;;14.94;64.01;94853.06;5077929;28;20251;-81
2020/12/23 09:22:09;;;;;;;1.13;1.08;;;15.20;83.50;;;14.99;64.17;94849.75;5076922;28;20293;-81
2020/12/23 09:24:36;;;;;;;1.40;1.30;;;15.20;83.30;;;15.05;64.17;94852.31;5077154;28;20263;-81
2020/12/23 09:27:24;;;;;;;1.27;1.17;;;15.20;83.30;;;15.08;63.85;94850.28;5093801;28;20591;-81
2020/12/23 09:29:52;;;;;;;1.02;1.02;;;15.30;83.20;;;15.12;64.14;94846.94;5093235;28;20246;-80
2020/12/23 09:32:19;;;;;;;1.05;1.05;;;15.30;83.20;;;15.15;63.65;94845.72;5076886;28;20263;-82
2020/12/23 09:35:18;;;;;;;1.08;1.08;;;15.40;83.10;;;15.17;63.80;94843.66;5062747;28;20654;-81
2020/12/23 09:37:50;;;;;;;1.30;1.20;;;15.40;82.60;;;15.20;63.74;94844.00;5075740;28;20636;-81
2020/12/23 09:40:17;;;;;;;1.38;1.20;;;15.40;83.00;;;15.20;63.22;94832.66;5058877;28;20701;-82
2020/12/23 09:42:43;;;;;;;1.10;1.00;;;15.40;82.70;;;15.25;63.96;94827.50;5071277;28;20185;-81
2020/12/23 09:45:11;;;;;;;1.20;1.10;;;15.60;83.00;;;15.32;63.66;94830.06;5091983;28;20565;-81
2020/12/23 09:47:42;;;;;;;1.20;1.10;;;15.50;82.90;;;15.33;63.26;94829.00;5070364;28;20617;-81
2020/12/23 09:50:10;;;;;;;1.83;1.50;;;15.60;82.30;;;15.30;62.72;94835.56;5073612;28;20218;-80
2020/12/23 09:52:36;;;;;;;1.70;1.38;;;15.50;82.20;;;15.26;61.92;94828.28;5092586;28;20558;-81
2020/12/23 09:55:07;;;;;;;1.75;1.50;;;15.60;82.00;;;15.29;62.50;94827.84;5059834;28;20221;-82
2020/12/23 09:57:35;;;;;;;1.20;1.10;;;15.60;81.80;;;15.28;62.84;94824.41;5076980;28;20193;-81
2020/12/23 10:00:06;;;;;;;2.88;1.10;;;15.60;82.00;;;15.33;63.35;94827.19;5059352;28;20249;-81
2020/12/23 10:02:38;;;;;;;1.08;1.08;;;15.60;82.00;;;15.33;62.87;94831.66;5072272;28;20194;-81
2020/12/23 10:05:05;;;;;;;1.30;1.20;;;15.60;82.00;;;15.37;62.50;94831.00;5071940;28;20219;-81
2020/12/23 10:07:32;;;;;;;3.60;3.30;;;15.60;81.90;;;15.43;62.59;94834.59;5070984;28;20248;-81
2020/12/23 10:09:59;;;;;;;1.90;1.70;;;15.60;81.90;;;15.47;62.96;94829.66;5071666;28;20218;-81
2020/12/23 10:12:26;;;;;;;1.80;1.48;;;15.70;82.30;;;15.51;62.11;94831.63;5075663;28;20285;-80
2020/12/23 10:14:53;;;;;;;1.30;1.20;;;15.70;81.90;;;15.56;62.93;94828.28;5061480;28;20218;-81
2020/12/23 10:17:20;;;;;;;1.17;1.10;;;15.70;82.10;;;15.64;63.25;94829.81;5092424;28;20265;-81
2020/12/23 10:19:46;;;;;;;0.90;0.90;;;15.80;82.20;;;15.68;63.26;94826.50;5059042;28;20256;-81
2020/12/23 10:22:13;;;;;;;1.80;1.10;;;15.80;82.30;;;15.72;62.56;94820.75;5073897;28;20192;-80
2020/12/23 10:24:40;;;;;;;1.20;1.20;;;15.80;82.00;;;15.72;62.58;94821.59;5075885;28;20217;-82
2020/12/23 10:27:07;;;;;;;1.05;1.05;;;15.90;81.90;;;15.68;61.68;94818.59;5059252;28;20279;-81
2020/12/23 10:29:34;;;;;;;1.20;1.10;;;15.90;81.40;;;15.68;62.92;94815.94;5075599;28;20221;-81